Time;durP1;ratioP1;P1;durP2;ratioP2;P2;SDS_P1;SDS_P2;PMS_P1;PMS_P2;Temp;Humidity;BMP_temperature;BMP_pressure;BME280_temperature;BME280_humidity;BME280_pressure;Samples;Min_cycle;Max_cycle;Signal;HPM_P1;HPM_P2
2021/03/25 00:01:44;;;;;;;1.95;1.20;;;24.00;76.70;;;;;;5072239;28;20052;-63
2021/03/25 00:04:12;;;;;;;1.88;0.88;;;24.10;78.10;;;;;;5072434;28;20052;-63
2021/03/25 00:06:45;;;;;;;2.28;1.13;;;24.10;77.90;;;;;;5086155;28;20036;-64
2021/03/25 00:09:31;;;;;;;0.93;0.82;;;24.20;76.00;;;;;;5092701;28;20032;-64
2021/03/25 00:12:00;;;;;;;3.05;0.90;;;24.30;74.50;;;;;;5074593;28;20024;-57
2021/03/25 00:14:28;;;;;;;2.35;1.30;;;24.40;73.10;;;;;;5092040;28;20367;-65
2021/03/25 00:16:55;;;;;;;2.38;1.40;;;24.50;75.50;;;;;;5092605;28;20028;-66
2021/03/25 00:19:23;;;;;;;4.43;1.02;;;24.50;77.80;;;;;;5092353;28;20031;-61
2021/03/25 00:21:51;;;;;;;2.17;1.17;;;24.60;72.50;;;;;;5092014;28;20122;-59
2021/03/25 00:24:20;;;;;;;3.22;1.17;;;24.70;72.00;;;;;;5092297;28;20031;-63
2021/03/25 00:26:48;;;;;;;2.30;1.08;;;24.70;74.50;;;;;;5092639;28;20021;-58
2021/03/25 00:29:16;;;;;;;3.67;0.90;;;24.70;74.10;;;;;;5092007;28;20028;-60
2021/03/25 00:31:45;;;;;;;4.20;1.15;;;24.80;76.20;;;;;;5091801;28;20020;-64
2021/03/25 00:34:13;;;;;;;3.92;1.13;;;24.80;73.90;;;;;;5091859;28;20062;-61
2021/03/25 00:36:41;;;;;;;2.60;1.15;;;24.90;73.10;;;;;;5092003;28;20034;-62
2021/03/25 00:39:11;;;;;;;2.83;1.00;;;24.90;72.90;;;;;;5092421;28;20024;-56
2021/03/25 00:41:39;;;;;;;5.10;1.30;;;25.00;74.90;;;;;;5091794;28;20630;-57
2021/03/25 00:44:08;;;;;;;1.75;0.70;;;25.10;73.60;;;;;;5091920;28;20016;-66
2021/03/25 00:46:36;;;;;;;1.90;1.13;;;25.10;72.40;;;;;;5092277;28;20031;-61
2021/03/25 00:49:05;;;;;;;3.50;0.93;;;25.20;74.60;;;;;;5092144;28;20016;-58
2021/03/25 00:51:33;;;;;;;1.17;1.08;;;25.20;71.40;;;;;;5090433;28;20020;-62
2021/03/25 00:54:00;;;;;;;1.90;1.05;;;25.20;74.80;;;;;;5091377;28;20019;-57
2021/03/25 00:56:28;;;;;;;2.28;1.10;;;25.20;75.40;;;;;;5091597;28;20538;-66
2021/03/25 00:58:55;;;;;;;2.80;1.52;;;25.30;74.30;;;;;;5091924;28;20024;-63
2021/03/25 01:01:26;;;;;;;1.83;0.85;;;25.20;74.90;;;;;;5091425;28;20479;-65
2021/03/25 01:03:53;;;;;;;1.13;0.90;;;25.40;71.40;;;;;;5091905;28;20024;-56
2021/03/25 01:06:21;;;;;;;3.38;0.77;;;25.50;73.60;;;;;;5091343;28;20398;-64
2021/03/25 01:08:48;;;;;;;1.60;1.00;;;25.60;69.80;;;;;;5091438;28;20020;-64
2021/03/25 01:11:20;;;;;;;2.63;1.10;;;25.60;73.00;;;;;;5091828;28;20107;-59
2021/03/25 01:13:59;;;;;;;2.72;0.80;;;25.80;69.10;;;;;;5091466;28;20074;-56
2021/03/25 01:16:41;;;;;;;1.85;0.70;;;25.70;74.00;;;;;;5091243;28;20040;-59
2021/03/25 01:19:25;;;;;;;1.63;0.75;;;25.70;73.90;;;;;;5091391;28;20171;-60
2021/03/25 01:21:54;;;;;;;2.65;1.10;;;25.60;74.20;;;;;;5091225;28;20371;-61
2021/03/25 01:24:22;;;;;;;1.00;0.70;;;25.70;71.70;;;;;;5091417;28;20376;-61
2021/03/25 01:26:54;;;;;;;2.78;0.90;;;25.80;73.90;;;;;;5091387;28;20056;-64
2021/03/25 01:29:21;;;;;;;1.33;0.82;;;25.90;70.80;;;;;;5091245;28;20031;-60
2021/03/25 01:31:49;;;;;;;2.03;1.00;;;26.20;71.70;;;;;;5091497;28;20032;-63
2021/03/25 01:34:21;;;;;;;1.55;0.90;;;26.10;69.70;;;;;;5073517;28;20024;-64
2021/03/25 01:36:49;;;;;;;;;;;26.20;68.70;;;;;;5091624;28;20089;-66
2021/03/25 01:39:16;;;;;;;1.20;1.00;;;26.20;70.40;;;;;;5091226;28;19968;-65
2021/03/25 01:41:44;;;;;;;3.95;1.17;;;26.00;72.80;;;;;;5090810;28;20020;-56
2021/03/25 01:44:37;;;;;;;2.45;0.85;;;26.10;69.50;;;;;;5091263;28;20482;-62
2021/03/25 01:47:09;;;;;;;1.95;0.90;;;26.30;72.60;;;;;;5091460;28;20020;-62
2021/03/25 01:49:36;;;;;;;1.88;1.02;;;26.30;72.30;;;;;;5090898;28;20035;-61
2021/03/25 01:52:35;;;;;;;2.13;1.00;;;26.30;72.30;;;;;;5091239;28;20103;-61
2021/03/25 01:55:23;;;;;;;3.25;1.42;;;26.40;71.50;;;;;;5091048;28;20043;-59
2021/03/25 01:58:09;;;;;;;1.10;0.88;;;26.30;69.10;;;;;;5091212;28;20024;-54
2021/03/25 02:00:46;;;;;;;0.93;0.60;;;26.40;68.90;;;;;;5078878;28;20071;-57
2021/03/25 02:03:50;;;;;;;0.70;0.70;;;26.60;70.10;;;;;;5070354;28;20035;-54
2021/03/25 02:06:37;;;;;;;2.72;1.00;;;26.50;67.90;;;;;;5071139;28;20380;-63
2021/03/25 02:09:49;;;;;;;1.50;0.90;;;26.60;71.20;;;;;;5071156;28;20490;-66
2021/03/25 02:12:31;;;;;;;1.50;0.90;;;26.70;71.10;;;;;;5032676;28;20056;-64
2021/03/25 02:15:05;;;;;;;;;;;26.80;71.00;;;;;;5071226;28;20080;-63
2021/03/25 02:17:51;;;;;;;1.17;0.70;;;26.80;70.90;;;;;;5067836;28;20661;-60
2021/03/25 02:20:37;;;;;;;1.48;0.85;;;26.90;70.40;;;;;;5071191;28;20028;-62
2021/03/25 02:23:29;;;;;;;1.30;0.80;;;26.90;68.40;;;;;;5072625;28;20479;-62
2021/03/25 02:26:22;;;;;;;1.55;0.70;;;26.70;71.90;;;;;;5072628;28;20019;-56
2021/03/25 02:29:26;;;;;;;2.33;0.80;;;26.70;71.60;;;;;;5068883;28;20032;-66
2021/03/25 02:32:02;;;;;;;1.13;0.77;;;26.90;67.60;;;;;;5070773;28;20086;-65
2021/03/25 02:34:35;;;;;;;1.33;0.70;;;27.00;68.80;;;;;;5072371;28;20032;-64
2021/03/25 02:37:22;;;;;;;0.80;0.57;;;27.00;69.10;;;;;;5069383;28;20059;-55
2021/03/25 02:40:07;;;;;;;6.20;0.90;;;27.00;67.30;;;;;;5068536;28;20036;-62
2021/03/25 02:42:48;;;;;;;2.40;1.00;;;27.10;65.90;;;;;;5069259;28;20502;-65
2021/03/25 02:45:29;;;;;;;3.47;1.77;;;27.00;69.60;;;;;;5072136;28;20028;-60
2021/03/25 02:48:05;;;;;;;1.67;0.73;;;26.90;69.10;;;;;;5068061;28;20043;-65
2021/03/25 02:50:45;;;;;;;1.10;0.75;;;26.90;70.50;;;;;;5069787;28;20029;-61
2021/03/25 02:53:33;;;;;;;3.38;1.00;;;27.00;70.60;;;;;;5071799;28;20036;-60
2021/03/25 02:56:09;;;;;;;2.05;0.75;;;26.90;71.20;;;;;;5069752;28;20601;-61
2021/03/25 02:58:39;;;;;;;1.13;0.70;;;27.00;66.40;;;;;;5065565;28;20056;-63
2021/03/25 03:01:15;;;;;;;3.17;0.93;;;26.90;71.50;;;;;;5071470;28;20091;-63
2021/03/25 03:04:07;;;;;;;1.10;0.65;;;27.20;65.60;;;;;;5071389;28;20435;-65
2021/03/25 03:06:46;;;;;;;1.30;0.95;;;27.20;68.60;;;;;;5055745;28;20390;-60
2021/03/25 03:09:29;;;;;;;2.72;1.02;;;27.30;65.80;;;;;;5054017;28;20082;-67
2021/03/25 03:12:00;;;;;;;4.47;1.17;;;27.30;69.20;;;;;;5070687;28;20085;-62
2021/03/25 03:14:35;;;;;;;1.20;0.80;;;27.30;67.70;;;;;;5070825;28;20063;-61
2021/03/25 03:17:15;;;;;;;1.15;0.73;;;27.20;70.20;;;;;;5063729;28;20089;-64
2021/03/25 03:20:11;;;;;;;0.70;0.70;;;27.10;68.90;;;;;;5068698;28;20834;-65
2021/03/25 03:22:39;;;;;;;3.17;0.55;;;27.10;70.70;;;;;;5062138;28;20067;-60
2021/03/25 03:25:13;;;;;;;0.80;0.60;;;27.10;70.40;;;;;;5073076;28;20432;-60
2021/03/25 03:28:02;;;;;;;2.00;1.08;;;27.10;71.40;;;;;;5072686;28;20121;-61
2021/03/25 03:30:44;;;;;;;2.50;1.23;;;27.10;69.40;;;;;;5073348;28;20082;-54
2021/03/25 03:33:46;;;;;;;1.30;0.55;;;27.10;69.40;;;;;;5072508;28;20020;-58
2021/03/25 03:36:24;;;;;;;0.82;0.70;;;26.90;72.00;;;;;;5054212;28;20488;-62
2021/03/25 03:39:00;;;;;;;6.10;0.80;;;26.80;70.70;;;;;;5072472;28;20056;-61
2021/03/25 03:41:51;;;;;;;1.55;0.70;;;26.80;71.20;;;;;;5072379;28;20031;-62
2021/03/25 03:44:27;;;;;;;2.35;0.55;;;26.70;70.60;;;;;;5072477;28;20107;-56
2021/03/25 03:46:58;;;;;;;5.65;0.80;;;26.70;70.50;;;;;;5072330;28;20032;-59
2021/03/25 03:49:52;;;;;;;4.05;0.80;;;26.60;70.70;;;;;;5071156;28;20467;-55
2021/03/25 03:52:26;;;;;;;1.00;0.60;;;26.60;72.20;;;;;;5071828;28;20086;-58
2021/03/25 03:54:55;;;;;;;4.80;1.27;;;26.40;73.50;;;;;;5071952;28;20035;-59
2021/03/25 03:58:00;;;;;;;0.70;0.52;;;26.40;74.30;;;;;;5071867;28;20060;-64
2021/03/25 04:00:42;;;;;;;2.53;1.40;;;26.20;74.50;;;;;;5057490;28;20029;-64
2021/03/25 04:03:41;;;;;;;3.40;1.05;;;26.00;75.60;;;;;;5072420;28;20051;-54
2021/03/25 04:06:16;;;;;;;1.25;0.50;;;25.90;76.30;;;;;;5066716;28;20075;-59
2021/03/25 04:09:15;;;;;;;5.88;0.70;;;25.70;78.40;;;;;;5071798;28;20024;-59
2021/03/25 04:11:56;;;;;;;1.20;0.75;;;25.50;77.90;;;;;;5053430;28;20029;-53
2021/03/25 04:14:34;;;;;;;3.05;0.73;;;25.30;78.60;;;;;;5071866;28;20395;-58
2021/03/25 04:17:05;;;;;;;1.45;0.80;;;25.20;79.80;;;;;;5071892;28;20487;-60
2021/03/25 04:19:40;;;;;;;1.23;0.57;;;25.20;79.90;;;;;;5071404;28;20178;-57
2021/03/25 04:22:13;;;;;;;0.80;0.70;;;25.00;80.00;;;;;;5071707;28;20543;-59
2021/03/25 04:24:59;;;;;;;8.73;1.40;;;25.00;80.30;;;;;;5071664;28;20358;-56
2021/03/25 04:27:52;;;;;;;4.80;1.65;;;25.10;80.50;;;;;;5071083;28;20032;-60
2021/03/25 04:30:44;;;;;;;4.13;1.10;;;25.10;79.70;;;;;;5054026;28;20052;-59
2021/03/25 04:33:14;;;;;;;5.45;1.50;;;25.10;80.20;;;;;;5071618;28;20025;-60
2021/03/25 04:35:44;;;;;;;4.10;1.73;;;25.00;81.60;;;;;;5071551;28;20044;-55
2021/03/25 04:38:24;;;;;;;3.92;1.08;;;25.00;81.30;;;;;;5071752;28;20103;-57
2021/03/25 04:40:56;;;;;;;1.50;1.00;;;24.90;82.00;;;;;;5071937;28;20032;-55
2021/03/25 04:43:25;;;;;;;2.70;1.20;;;24.80;82.30;;;;;;5071043;28;20032;-54
2021/03/25 04:46:14;;;;;;;3.35;1.38;;;24.70;82.50;;;;;;5071376;28;20126;-60
2021/03/25 04:48:45;;;;;;;3.33;1.27;;;24.70;82.20;;;;;;5071168;28;20107;-63
2021/03/25 04:51:20;;;;;;;3.67;1.17;;;24.60;82.80;;;;;;5071334;28;20123;-62
2021/03/25 04:53:50;;;;;;;2.47;1.50;;;24.60;83.10;;;;;;5071127;28;20029;-64
2021/03/25 04:56:24;;;;;;;3.92;1.15;;;24.60;82.70;;;;;;5071656;28;20127;-64
2021/03/25 04:59:01;;;;;;;4.05;1.48;;;24.50;83.10;;;;;;5071470;28;20314;-61
2021/03/25 05:01:33;;;;;;;10.48;2.17;;;24.50;83.00;;;;;;5070909;28;20025;-56
2021/03/25 05:04:06;;;;;;;6.13;1.90;;;24.60;83.70;;;;;;5071112;28;20032;-60
2021/03/25 05:06:47;;;;;;;1.95;1.00;;;24.50;83.70;;;;;;5070902;28;20045;-53
2021/03/25 05:09:20;;;;;;;5.50;1.55;;;24.50;84.00;;;;;;5071069;28;20035;-62
2021/03/25 05:11:48;;;;;;;6.93;1.63;;;24.60;84.00;;;;;;5060955;28;20039;-56
2021/03/25 05:14:25;;;;;;;4.40;1.10;;;24.60;83.20;;;;;;5068536;28;20025;-65
2021/03/25 05:17:11;;;;;;;4.40;1.48;;;24.70;83.40;;;;;;5067609;28;20036;-65
2021/03/25 05:19:52;;;;;;;4.97;1.35;;;24.80;82.00;;;;;;5069624;28;20103;-62
2021/03/25 05:22:33;;;;;;;1.95;0.75;;;24.90;81.60;;;;;;5068041;28;20036;-57
2021/03/25 05:25:12;;;;;;;2.47;1.40;;;24.90;82.50;;;;;;5070322;28;20360;-65
2021/03/25 05:28:15;;;;;;;7.95;1.65;;;24.90;82.80;;;;;;5066111;28;20108;-58
2021/03/25 05:30:53;;;;;;;7.95;1.27;;;25.00;82.00;;;;;;5024871;28;20036;-65
2021/03/25 05:33:24;;;;;;;2.67;1.27;;;25.00;79.80;;;;;;5049592;28;20027;-52
2021/03/25 05:36:01;;;;;;;9.38;1.33;;;25.10;78.90;;;;;;5064458;28;20127;-66
2021/03/25 05:38:29;;;;;;;2.65;1.27;;;25.10;79.90;;;;;;5071310;28;20053;-59
2021/03/25 05:41:28;;;;;;;1.55;0.75;;;25.20;78.80;;;;;;5071594;28;20116;-59
2021/03/25 05:44:23;;;;;;;1.13;0.88;;;25.20;79.90;;;;;;5071243;28;20435;-62
2021/03/25 05:47:21;;;;;;;2.42;1.00;;;25.20;77.80;;;;;;5067365;28;20035;-64
2021/03/25 05:50:17;;;;;;;3.63;1.30;;;25.30;79.00;;;;;;5072178;28;20355;-60
2021/03/25 05:53:21;;;;;;;3.72;1.15;;;25.20;78.90;;;;;;5064752;28;20121;-64
2021/03/25 05:56:01;;;;;;;2.10;1.10;;;25.40;77.40;;;;;;5068801;28;20028;-61
2021/03/25 05:58:43;;;;;;;4.32;1.00;;;25.40;80.30;;;;;;5072643;28;20031;-58
2021/03/25 06:01:35;;;;;;;1.83;1.00;;;25.20;81.20;;;;;;5071734;28;20183;-54
2021/03/25 06:04:14;;;;;;;4.93;1.30;;;25.40;77.60;;;;;;5071620;28;20036;-57
2021/03/25 06:07:01;;;;;;;3.67;1.10;;;25.40;78.00;;;;;;5073728;28;20048;-61
2021/03/25 06:10:04;;;;;;;3.17;1.20;;;25.30;77.60;;;;;;5061032;28;20063;-62
2021/03/25 06:12:37;;;;;;;;;;;25.20;79.50;;;;;;5054791;28;20107;-59
2021/03/25 06:15:28;;;;;;;3.63;1.20;;;25.20;78.70;;;;;;5053791;28;19920;-59
2021/03/25 06:18:35;;;;;;;2.53;1.33;;;25.10;80.00;;;;;;5054063;28;20024;-59
2021/03/25 06:21:14;;;;;;;2.40;1.38;;;24.90;82.00;;;;;;5053170;28;20033;-61
2021/03/25 06:24:26;;;;;;;3.40;2.58;;;24.80;83.60;;;;;;5052853;28;20028;-60
2021/03/25 06:27:36;;;;;;;6.20;2.65;;;24.70;83.50;;;;;;5030623;28;20060;-51
2021/03/25 06:30:28;;;;;;;6.45;5.80;;;24.70;83.80;;;;;;5052472;28;20025;-52
2021/03/25 06:33:17;;;;;;;4.32;2.83;;;24.90;83.40;;;;;;5052840;28;20353;-49
2021/03/25 06:35:53;;;;;;;5.35;1.83;;;25.00;81.40;;;;;;5035423;28;20040;-49
2021/03/25 06:38:39;;;;;;;4.55;3.08;;;25.00;77.10;;;;;;5054370;28;20383;-49
2021/03/25 06:41:20;;;;;;;5.20;2.70;;;25.00;78.30;;;;;;5052591;28;20025;-54
2021/03/25 06:43:55;;;;;;;12.80;6.70;;;25.10;77.90;;;;;;5053289;28;20528;-56
2021/03/25 06:46:22;;;;;;;6.72;4.15;;;25.10;78.80;;;;;;5035589;28;20033;-56
2021/03/25 06:49:04;;;;;;;8.38;6.93;;;25.20;77.70;;;;;;5053281;28;20024;-52
2021/03/25 06:51:33;;;;;;;;;;;25.20;79.80;;;;;;5071563;28;20029;-51
2021/03/25 06:54:09;;;;;;;10.25;3.28;;;25.30;80.50;;;;;;5073259;28;19904;-56
2021/03/25 06:56:43;;;;;;;9.85;5.47;;;25.30;77.60;;;;;;5073451;28;20527;-56
2021/03/25 06:59:31;;;;;;;19.50;13.75;;;25.30;78.60;;;;;;5073772;28;20020;-56
2021/03/25 07:02:21;;;;;;;5.95;3.83;;;25.40;80.30;;;;;;5073123;28;20024;-55
2021/03/25 07:04:52;;;;;;;9.90;6.03;;;25.30;78.50;;;;;;5073432;28;20097;-55
2021/03/25 07:07:33;;;;;;;10.68;6.43;;;25.30;79.70;;;;;;5073889;28;20048;-54
2021/03/25 07:10:02;;;;;;;13.33;6.07;;;25.30;80.90;;;;;;5073491;28;20035;-54
2021/03/25 07:12:31;;;;;;;15.27;6.20;;;25.30;81.10;;;;;;5073133;28;20023;-52
2021/03/25 07:15:00;;;;;;;6.63;4.70;;;25.30;81.80;;;;;;5073179;28;20383;-51
2021/03/25 07:17:43;;;;;;;5.57;3.20;;;25.30;82.20;;;;;;5072791;28;20431;-58
2021/03/25 07:20:31;;;;;;;11.80;4.20;;;25.30;80.60;;;;;;5072976;28;20032;-61
2021/03/25 07:23:01;;;;;;;10.80;4.47;;;25.40;81.70;;;;;;5073392;28;20029;-57
2021/03/25 07:25:30;;;;;;;9.55;3.22;;;25.40;83.10;;;;;;5072803;28;20042;-59
2021/03/25 07:28:00;;;;;;;5.88;2.72;;;25.40;80.90;;;;;;5072973;28;20032;-57
2021/03/25 07:30:59;;;;;;;6.90;2.58;;;25.50;79.50;;;;;;5073177;28;20023;-56
2021/03/25 07:33:29;;;;;;;8.88;3.90;;;25.50;67.70;;;;;;5072564;28;20040;-54
2021/03/25 07:36:08;;;;;;;9.13;2.05;;;25.60;65.60;;;;;;5054769;28;20586;-49
2021/03/25 07:38:38;;;;;;;7.15;3.10;;;25.80;64.80;;;;;;5072710;28;20117;-48
2021/03/25 07:41:15;;;;;;;4.03;1.52;;;25.80;66.80;;;;;;5072895;28;20040;-51
2021/03/25 07:44:06;;;;;;;4.85;1.67;;;25.80;60.40;;;;;;5072885;28;20120;-53
2021/03/25 07:46:48;;;;;;;9.73;2.00;;;25.90;67.40;;;;;;5072556;28;20024;-50
2021/03/25 07:49:21;;;;;;;15.17;3.20;;;25.80;63.40;;;;;;5072736;28;20056;-54
2021/03/25 07:52:01;;;;;;;5.95;2.13;;;25.80;62.40;;;;;;5054607;28;20677;-51
2021/03/25 07:54:30;;;;;;;7.53;2.25;;;25.80;64.30;;;;;;5072078;28;20387;-46
2021/03/25 07:57:12;;;;;;;9.07;2.58;;;25.70;62.80;;;;;;5072482;28;20048;-50
2021/03/25 07:59:47;;;;;;;8.02;1.90;;;25.70;67.00;;;;;;5072310;28;20025;-53
2021/03/25 08:02:36;;;;;;;8.65;2.40;;;25.60;64.90;;;;;;5072006;28;20108;-50
2021/03/25 08:05:27;;;;;;;14.90;2.70;;;25.60;67.60;;;;;;5072291;28;20402;-47
2021/03/25 08:08:02;;;;;;;6.57;2.30;;;25.50;69.30;;;;;;5072516;28;20036;-54
2021/03/25 08:10:42;;;;;;;6.63;1.70;;;25.50;66.60;;;;;;5072399;28;20438;-53
2021/03/25 08:13:12;;;;;;;7.63;1.92;;;25.50;59.40;;;;;;5054371;28;20056;-56
2021/03/25 08:15:53;;;;;;;4.47;1.55;;;25.50;63.80;;;;;;5072060;28;20082;-52
2021/03/25 08:18:46;;;;;;;10.68;2.25;;;25.50;64.20;;;;;;5071983;28;20135;-56
2021/03/25 08:21:34;;;;;;;6.85;2.30;;;25.50;68.90;;;;;;5071927;28;20075;-56
2021/03/25 08:24:39;;;;;;;7.45;1.88;;;25.50;70.20;;;;;;5071597;28;20029;-53
2021/03/25 08:27:30;;;;;;;3.28;1.58;;;25.50;66.60;;;;;;5072545;28;20100;-53
2021/03/25 08:30:09;;;;;;;8.82;2.42;;;25.40;67.60;;;;;;5053953;28;20074;-59
2021/03/25 08:33:08;;;;;;;13.48;3.08;;;25.40;74.00;;;;;;5071754;28;20111;-50
2021/03/25 08:36:03;;;;;;;7.82;1.98;;;25.40;71.30;;;;;;5065355;28;20411;-55
2021/03/25 08:39:00;;;;;;;12.45;2.00;;;25.40;66.70;;;;;;5071818;28;20497;-53
2021/03/25 08:41:51;;;;;;;6.70;1.52;;;25.30;63.40;;;;;;5072069;28;20017;-49
2021/03/25 08:44:34;;;;;;;11.57;2.15;;;25.30;65.10;;;;;;5054104;28;20020;-56
2021/03/25 08:47:13;;;;;;;3.90;1.48;;;25.20;67.90;;;;;;5072201;28;20055;-54
2021/03/25 08:50:07;;;;;;;14.95;2.60;;;25.20;69.60;;;;;;5071496;28;20429;-57
2021/03/25 08:52:38;;;;;;;16.92;2.03;;;25.00;71.90;;;;;;5064056;28;20487;-60
2021/03/25 08:55:40;;;;;;;9.93;1.95;;;25.00;75.90;;;;;;5072158;28;20440;-54
2021/03/25 08:58:10;;;;;;;5.22;1.13;;;24.90;63.20;;;;;;5072028;28;20025;-58
2021/03/25 09:00:42;;;;;;;5.07;1.08;;;24.90;67.40;;;;;;5071936;28;20526;-53
2021/03/25 09:03:38;;;;;;;18.05;1.85;;;24.80;70.50;;;;;;5071865;28;20100;-52
2021/03/25 09:06:23;;;;;;;5.85;1.25;;;24.80;68.30;;;;;;5064488;28;20475;-54
2021/03/25 09:08:58;;;;;;;10.10;1.58;;;24.70;67.90;;;;;;5070741;28;20542;-52
2021/03/25 09:11:26;;;;;;;3.88;1.35;;;24.70;71.60;;;;;;5072104;28;20027;-51
2021/03/25 09:14:00;;;;;;;10.23;1.85;;;24.70;66.80;;;;;;5074932;28;20486;-56
2021/03/25 09:16:35;;;;;;;3.33;1.35;;;24.70;67.30;;;;;;5076007;28;20037;-50
2021/03/25 09:19:16;;;;;;;4.75;1.20;;;24.70;64.00;;;;;;5075814;28;20471;-55
2021/03/25 09:21:47;;;;;;;11.10;1.33;;;24.70;64.30;;;;;;5075839;28;20025;-58
2021/03/25 09:24:15;;;;;;;8.55;1.70;;;24.60;61.90;;;;;;5075991;28;20379;-56
2021/03/25 09:26:51;;;;;;;3.70;1.42;;;24.60;67.30;;;;;;5076076;28;20036;-51
2021/03/25 09:29:25;;;;;;;4.57;1.60;;;24.50;70.60;;;;;;5075877;28;20025;-53
2021/03/25 09:31:56;;;;;;;4.00;1.73;;;24.50;65.70;;;;;;5063180;28;20029;-58
2021/03/25 09:34:26;;;;;;;9.98;1.90;;;24.50;65.00;;;;;;5072988;28;20343;-58
2021/03/25 09:37:17;;;;;;;10.23;1.65;;;24.50;75.40;;;;;;5072381;28;20082;-51
2021/03/25 09:40:03;;;;;;;8.63;2.30;;;24.40;75.00;;;;;;5068778;28;20404;-59
2021/03/25 09:42:30;;;;;;;4.93;1.45;;;24.30;72.20;;;;;;5068000;28;20039;-66
2021/03/25 09:44:58;;;;;;;3.85;1.23;;;24.30;74.80;;;;;;5072574;28;20036;-63
2021/03/25 09:47:36;;;;;;;3.47;1.38;;;24.30;76.10;;;;;;5039346;28;20107;-59
2021/03/25 09:50:03;;;;;;;5.72;1.40;;;24.20;75.40;;;;;;5072919;28;20055;-61
2021/03/25 09:52:40;;;;;;;5.63;1.58;;;24.20;75.80;;;;;;5068408;28;20394;-65
2021/03/25 09:55:07;;;;;;;6.53;1.50;;;24.20;77.00;;;;;;5074055;28;20052;-61
2021/03/25 09:57:36;;;;;;;11.48;1.40;;;24.20;77.40;;;;;;5073265;28;20106;-65
2021/03/25 10:00:07;;;;;;;6.10;1.52;;;24.20;77.00;;;;;;5072960;28;20020;-64
2021/03/25 10:02:40;;;;;;;9.40;2.17;;;24.20;77.50;;;;;;5067731;28;20112;-63
2021/03/25 10:05:31;;;;;;;8.93;1.23;;;24.10;76.50;;;;;;5073634;28;20471;-67
2021/03/25 10:08:11;;;;;;;5.00;1.73;;;24.10;76.50;;;;;;5070032;28;20032;-62
2021/03/25 10:10:41;;;;;;;13.85;1.50;;;24.10;78.30;;;;;;5067543;28;20450;-68
2021/03/25 10:13:12;;;;;;;11.82;1.85;;;24.10;79.00;;;;;;5066521;28;20028;-67
2021/03/25 10:15:48;;;;;;;4.35;1.33;;;24.00;78.60;;;;;;5070799;28;20106;-67
2021/03/25 10:18:18;;;;;;;3.05;1.17;;;24.00;76.40;;;;;;5070317;28;20032;-65
2021/03/25 10:21:15;;;;;;;4.90;1.52;;;24.00;76.40;;;;;;5071283;28;20103;-63
2021/03/25 10:23:51;;;;;;;5.45;1.70;;;24.00;76.60;;;;;;5066193;28;20472;-67
2021/03/25 10:26:38;;;;;;;4.68;1.50;;;23.90;77.90;;;;;;5070458;28;20107;-64
2021/03/25 10:29:11;;;;;;;4.10;1.92;;;23.90;79.00;;;;;;5069693;28;20020;-64
2021/03/25 10:31:48;;;;;;;4.30;1.55;;;23.80;79.40;;;;;;5068355;28;20012;-53
2021/03/25 10:34:28;;;;;;;4.95;1.65;;;23.80;77.80;;;;;;5070352;28;20485;-49
2021/03/25 10:36:58;;;;;;;8.63;1.13;;;23.80;79.00;;;;;;5071441;28;20112;-58
2021/03/25 10:39:33;;;;;;;4.15;2.28;;;23.80;79.10;;;;;;5070854;28;20033;-59
2021/03/25 10:42:37;;;;;;;3.85;1.40;;;23.80;78.80;;;;;;5041850;28;20147;-60
2021/03/25 10:45:34;;;;;;;3.80;1.15;;;23.80;79.70;;;;;;5065105;28;20041;-56
2021/03/25 10:48:17;;;;;;;1.38;1.00;;;23.80;79.60;;;;;;5072280;28;20028;-58
2021/03/25 10:51:11;;;;;;;5.28;1.30;;;23.80;79.70;;;;;;5070186;28;20448;-52
2021/03/25 10:53:58;;;;;;;4.55;1.38;;;23.70;81.10;;;;;;5064463;28;20055;-55
2021/03/25 10:56:37;;;;;;;5.68;1.25;;;23.70;80.50;;;;;;5067711;28;20045;-53
2021/03/25 10:59:18;;;;;;;9.32;1.48;;;23.70;81.00;;;;;;5069100;28;20021;-61
2021/03/25 11:01:59;;;;;;;2.70;1.17;;;23.70;80.90;;;;;;5066025;28;20027;-52
2021/03/25 11:04:32;;;;;;;4.47;1.00;;;23.70;80.90;;;;;;5070650;28;20031;-49
2021/03/25 11:07:23;;;;;;;4.63;1.23;;;23.70;80.50;;;;;;4987369;28;2392143;-61
2021/03/25 11:10:01;;;;;;;3.83;2.13;;;23.70;80.80;;;;;;5071451;28;20112;-60
2021/03/25 11:12:33;;;;;;;1.90;0.95;;;23.70;79.70;;;;;;5058321;28;20039;-64
2021/03/25 11:15:18;;;;;;;2.20;1.00;;;23.60;80.50;;;;;;5071077;28;20028;-59
2021/03/25 11:17:47;;;;;;;4.50;1.40;;;23.60;80.30;;;;;;5070404;28;20028;-57
2021/03/25 11:20:24;;;;;;;3.58;1.30;;;23.60;79.60;;;;;;5072339;28;20107;-57
2021/03/25 11:22:52;;;;;;;4.55;1.10;;;23.60;81.40;;;;;;5062533;28;20683;-55
2021/03/25 11:25:30;;;;;;;5.53;1.05;;;23.60;81.40;;;;;;5071588;28;20074;-60
2021/03/25 11:28:18;;;;;;;1.40;0.75;;;23.60;81.50;;;;;;5072303;28;20044;-55
2021/03/25 11:30:52;;;;;;;3.22;1.15;;;23.60;82.10;;;;;;5070304;28;20017;-64
2021/03/25 11:33:25;;;;;;;1.55;1.23;;;23.50;81.30;;;;;;5061473;28;20033;-59
2021/03/25 11:35:53;;;;;;;4.07;1.60;;;23.50;81.50;;;;;;5070807;28;20490;-50
2021/03/25 11:38:32;;;;;;;4.60;1.77;;;23.50;81.40;;;;;;5071105;28;20356;-60
2021/03/25 11:41:30;;;;;;;3.53;1.50;;;23.50;81.60;;;;;;5069451;28;20020;-55
2021/03/25 11:44:01;;;;;;;2.92;1.02;;;23.50;82.20;;;;;;5060784;28;20016;-61
2021/03/25 11:46:31;;;;;;;2.92;0.95;;;23.50;82.00;;;;;;5052757;28;20051;-55
2021/03/25 11:49:12;;;;;;;2.97;0.70;;;23.50;82.30;;;;;;5071316;28;20035;-56
2021/03/25 11:51:45;;;;;;;2.50;1.38;;;23.40;82.00;;;;;;5069039;28;20187;-57
2021/03/25 11:54:20;;;;;;;4.57;1.33;;;23.40;82.40;;;;;;5063231;28;20031;-61
2021/03/25 11:56:51;;;;;;;4.10;1.40;;;23.40;81.50;;;;;;5070952;28;20135;-54
2021/03/25 11:59:18;;;;;;;5.72;1.20;;;23.40;81.40;;;;;;5070898;28;20031;-52
2021/03/25 12:01:47;;;;;;;2.45;1.15;;;23.40;82.50;;;;;;5067623;28;20024;-56
2021/03/25 12:04:19;;;;;;;4.68;1.15;;;23.40;82.60;;;;;;5062916;28;20028;-54
2021/03/25 12:07:03;;;;;;;1.67;1.08;;;23.40;81.50;;;;;;5070704;28;20088;-53
2021/03/25 12:09:33;;;;;;;1.90;0.90;;;23.40;82.30;;;;;;5067768;28;20386;-55
2021/03/25 12:12:01;;;;;;;3.90;1.15;;;23.30;82.30;;;;;;5059237;28;20063;-55
2021/03/25 12:14:29;;;;;;;3.05;1.20;;;23.30;81.90;;;;;;5064873;28;20034;-58
2021/03/25 12:16:59;;;;;;;5.82;1.20;;;23.30;82.50;;;;;;5071570;28;20131;-63
2021/03/25 12:19:27;;;;;;;2.38;1.35;;;23.20;82.60;;;;;;5070297;28;20025;-60
2021/03/25 12:21:55;;;;;;;2.88;1.08;;;23.20;82.60;;;;;;5071775;28;20033;-61
2021/03/25 12:24:22;;;;;;;3.08;1.15;;;23.20;82.70;;;;;;5070103;28;20099;-56
2021/03/25 12:26:49;;;;;;;4.82;1.33;;;23.20;82.90;;;;;;5070255;28;20540;-61
2021/03/25 12:29:17;;;;;;;8.38;1.30;;;23.10;83.90;;;;;;5071296;28;20025;-61
2021/03/25 12:31:45;;;;;;;6.65;1.75;;;23.10;83.20;;;;;;5071648;28;20124;-57
2021/03/25 12:34:15;;;;;;;2.28;1.20;;;23.10;83.30;;;;;;5070936;28;20150;-55
2021/03/25 12:36:42;;;;;;;1.63;1.20;;;23.10;83.50;;;;;;5069994;28;20047;-61
2021/03/25 12:39:10;;;;;;;3.00;1.35;;;23.10;83.40;;;;;;5071789;28;20036;-62
2021/03/25 12:41:40;;;;;;;3.70;0.93;;;23.10;83.20;;;;;;5072134;28;20032;-59
2021/03/25 12:44:09;;;;;;;5.65;1.20;;;23.00;84.00;;;;;;5071768;28;20391;-62
2021/03/25 12:46:37;;;;;;;5.40;0.95;;;23.00;83.40;;;;;;5072108;28;20035;-59
2021/03/25 12:49:04;;;;;;;1.83;1.05;;;23.00;83.90;;;;;;5071945;28;20028;-59
2021/03/25 12:51:32;;;;;;;2.10;0.70;;;23.00;84.10;;;;;;5072054;28;20029;-57
2021/03/25 12:53:59;;;;;;;3.80;1.10;;;23.00;84.10;;;;;;5071965;28;20537;-62
2021/03/25 12:56:33;;;;;;;2.83;1.05;;;22.90;83.20;;;;;;5071769;28;20041;-64
2021/03/25 12:59:08;;;;;;;7.07;1.10;;;22.90;83.90;;;;;;5071913;28;20033;-60
2021/03/25 13:01:35;;;;;;;3.58;1.10;;;22.80;83.60;;;;;;5071882;28;20028;-58
2021/03/25 13:04:03;;;;;;;2.38;1.00;;;22.90;84.00;;;;;;5071707;28;20029;-58
2021/03/25 13:06:31;;;;;;;2.40;0.93;;;22.80;84.30;;;;;;5071758;28;20403;-60
2021/03/25 13:08:58;;;;;;;3.58;0.88;;;22.80;84.30;;;;;;5071911;28;20095;-60
2021/03/25 13:11:39;;;;;;;4.05;0.90;;;22.80;84.10;;;;;;5071979;28;20051;-60
2021/03/25 13:14:11;;;;;;;1.30;0.70;;;22.70;83.30;;;;;;5071939;28;20054;-58
2021/03/25 13:16:39;;;;;;;4.00;1.23;;;22.70;84.30;;;;;;5072017;28;20033;-61
2021/03/25 13:19:06;;;;;;;1.45;1.13;;;22.70;84.20;;;;;;5071887;28;20033;-62
2021/03/25 13:21:33;;;;;;;3.72;1.08;;;22.70;84.90;;;;;;5071687;28;20025;-58
2021/03/25 13:24:01;;;;;;;3.13;1.10;;;22.60;84.80;;;;;;5070629;28;20031;-60
2021/03/25 13:26:28;;;;;;;2.67;1.17;;;22.60;84.90;;;;;;5062392;28;20058;-61
2021/03/25 13:28:56;;;;;;;2.40;1.10;;;22.60;84.70;;;;;;5069179;28;20029;-62
2021/03/25 13:31:23;;;;;;;3.70;1.23;;;22.60;85.10;;;;;;5069646;28;20025;-60
2021/03/25 13:33:50;;;;;;;1.60;0.90;;;22.60;85.20;;;;;;5069659;28;20029;-62
2021/03/25 13:36:18;;;;;;;3.80;1.27;;;22.60;85.20;;;;;;5067367;28;20044;-60
2021/03/25 13:38:45;;;;;;;3.75;1.27;;;22.50;85.30;;;;;;5068591;28;20021;-59
2021/03/25 13:41:13;;;;;;;1.95;1.10;;;22.50;85.20;;;;;;5070401;28;20032;-62
2021/03/25 13:43:40;;;;;;;2.70;1.00;;;22.50;85.60;;;;;;5070021;28;20032;-61